Burlington, CO

5:27 PM MST on November 20, 2019 (GMT -0700)
Kit Carson County | | Change Station

Elev 4219 ft 39.24 °N, 102.29 °W | Updated 34 minutes ago

Rain
Rain
43 °F
Feels Like 34 °F
N
22
Wind Variable Wind from North
Gusts 32 mph

Today
High -- | Low -- °F
--% Chance of Precip.
Yesterday
High -- | Low -- °F
Precip. -- in
Pressure 29.75 in
Visibility 10.0 miles
Clouds Mostly Cloudy 6500 ft
Windchill 34 °F
Dew Point 33 °F
Humidity 68%
Rainfall 0.00 in
Snow Depth Not available.
6:38 AM 4:30 PM
Last Quarter, 37% visible
METAR KITR 202353Z AUTO 35019G28KT 10SM BKN065 06/01 A2976 RMK AO2 PK WND 35031/2333 RAB17E31 SLP075 P0000 60000 T00610006 10133 20061 51035
Pressure 29.75 in
Visibility 10.0 miles
Clouds Mostly Cloudy 6500 ft
Windchill 34 °F
Dew Point 33 °F
Humidity 68%
Rainfall 0.00 in
Snow Depth Not available.
6:38 AM 4:30 PM
Last Quarter, 37% visible
METAR KITR 202353Z AUTO 35019G28KT 10SM BKN065 06/01 A2976 RMK AO2 PK WND 35031/2333 RAB17E31 SLP075 P0000 60000 T00610006 10133 20061 51035

Get Severe Weather Alerts

Thanks for signing up!

Be on the lookout for a verification email in your inbox.

You'll start receiving the daily forecast at 6 AM.

×

10-Day Weather Forecast

Almanac

Astronomy

Nov. 20, 2019 Rise Set
Actual Time
Civil Twilight
Nautical Twilight
Astronomical Twilight
Moon
Length of Visible Light
Length of Day
Tomorrow will be .
, % of the Moon is Illuminated

Today's Extremes

State Highs State Lows

Community

WunderPhotos

Category 6

Welcome to Category 6. This is the collective home for Weather Underground's featured writeups by Dr. Jeff Masters (right), Bob Henson (left), Chris Burt, and other regular contributors.

Nearby

Air Quality

  Air Quality AQ Index Pollutant
Not available.

Snow Depth

Station Depth Elevation

Earthquake Activity

City Distance Mag. Time & Date
Minimum magnitude displayed is 2.5.

Coastal Water Temperatures

Place Temperature

Stations

Nearby Weather Stations

Station Location Temp. Windchill Dew Point Humidity Wind Precip. Elev Updated Type
                   

Watches & Warnings

There are currently no watches in effect.